sensor_id;sensor_type;location;lat;lon;timestamp;temperature;humidity
1129;DHT22;553;51.038;7.216;2024-02-23T00:01:07;7.20;99.90
1129;DHT22;553;51.038;7.216;2024-02-23T00:03:35;7.10;99.90
1129;DHT22;553;51.038;7.216;2024-02-23T00:06:04;7.10;99.90
1129;DHT22;553;51.038;7.216;2024-02-23T00:08:30;7.10;99.90
1129;DHT22;553;51.038;7.216;2024-02-23T00:10:57;7.10;99.90
1129;DHT22;553;51.038;7.216;2024-02-23T00:13:24;7.00;99.90
1129;DHT22;553;51.038;7.216;2024-02-23T00:15:51;7.00;99.90
1129;DHT22;553;51.038;7.216;2024-02-23T00:18:18;7.10;99.90
1129;DHT22;553;51.038;7.216;2024-02-23T00:20:46;7.00;99.90
1129;DHT22;553;51.038;7.216;2024-02-23T00:23:13;7.00;99.90
1129;DHT22;553;51.038;7.216;2024-02-23T00:25:40;7.00;99.90
1129;DHT22;553;51.038;7.216;2024-02-23T00:28:08;7.10;99.90
1129;DHT22;553;51.038;7.216;2024-02-23T00:30:35;7.10;99.90
1129;DHT22;553;51.038;7.216;2024-02-23T00:33:02;7.00;99.90
1129;DHT22;553;51.038;7.216;2024-02-23T00:35:29;7.00;99.90
1129;DHT22;553;51.038;7.216;2024-02-23T00:37:56;7.00;99.90
1129;DHT22;553;51.038;7.216;2024-02-23T00:40:23;6.90;99.90
1129;DHT22;553;51.038;7.216;2024-02-23T00:42:50;6.90;99.90
1129;DHT22;553;51.038;7.216;2024-02-23T00:45:16;7.00;99.90
1129;DHT22;553;51.038;7.216;2024-02-23T00:47:44;6.80;99.90
1129;DHT22;553;51.038;7.216;2024-02-23T00:50:12;6.80;99.90
1129;DHT22;553;51.038;7.216;2024-02-23T00:52:41;6.70;99.90
1129;DHT22;553;51.038;7.216;2024-02-23T00:55:08;6.70;99.90
1129;DHT22;553;51.038;7.216;2024-02-23T00:57:35;6.60;99.90
1129;DHT22;553;51.038;7.216;2024-02-23T01:00:03;6.60;99.90
1129;DHT22;553;51.038;7.216;2024-02-23T01:02:32;6.50;99.90
1129;DHT22;553;51.038;7.216;2024-02-23T01:05:01;6.50;99.90
1129;DHT22;553;51.038;7.216;2024-02-23T01:07:29;6.50;99.90
1129;DHT22;553;51.038;7.216;2024-02-23T01:09:59;6.50;99.90
1129;DHT22;553;51.038;7.216;2024-02-23T01:12:26;6.50;99.90
1129;DHT22;553;51.038;7.216;2024-02-23T01:14:53;6.50;99.90
1129;DHT22;553;51.038;7.216;2024-02-23T01:17:20;6.50;99.90
1129;DHT22;553;51.038;7.216;2024-02-23T01:19:47;6.60;99.90
1129;DHT22;553;51.038;7.216;2024-02-23T01:22:14;6.60;99.90
1129;DHT22;553;51.038;7.216;2024-02-23T01:24:41;6.70;99.90
1129;DHT22;553;51.038;7.216;2024-02-23T01:27:09;6.80;99.90
1129;DHT22;553;51.038;7.216;2024-02-23T01:29:35;6.90;99.90
1129;DHT22;553;51.038;7.216;2024-02-23T01:32:02;6.80;99.90
1129;DHT22;553;51.038;7.216;2024-02-23T01:34:29;6.80;99.90
1129;DHT22;553;51.038;7.216;2024-02-23T01:36:56;6.80;99.90
1129;DHT22;553;51.038;7.216;2024-02-23T01:39:23;6.80;99.90
1129;DHT22;553;51.038;7.216;2024-02-23T01:41:49;6.70;99.90
1129;DHT22;553;51.038;7.216;2024-02-23T01:44:16;6.60;99.90
1129;DHT22;553;51.038;7.216;2024-02-23T01:46:44;6.60;99.90
1129;DHT22;553;51.038;7.216;2024-02-23T01:49:12;6.60;99.90
1129;DHT22;553;51.038;7.216;2024-02-23T01:51:39;6.70;99.90
1129;DHT22;553;51.038;7.216;2024-02-23T01:54:06;6.60;99.90
1129;DHT22;553;51.038;7.216;2024-02-23T01:56:33;6.60;99.90
1129;DHT22;553;51.038;7.216;2024-02-23T01:59:03;6.60;99.90
1129;DHT22;553;51.038;7.216;2024-02-23T02:01:31;6.50;99.90
1129;DHT22;553;51.038;7.216;2024-02-23T02:03:59;6.50;99.90
1129;DHT22;553;51.038;7.216;2024-02-23T02:06:25;6.50;99.90
1129;DHT22;553;51.038;7.216;2024-02-23T02:08:53;6.40;99.90
1129;DHT22;553;51.038;7.216;2024-02-23T02:11:20;6.40;99.90
1129;DHT22;553;51.038;7.216;2024-02-23T02:13:47;6.40;99.90
1129;DHT22;553;51.038;7.216;2024-02-23T02:16:14;6.40;99.90
1129;DHT22;553;51.038;7.216;2024-02-23T02:18:40;6.40;99.90
1129;DHT22;553;51.038;7.216;2024-02-23T02:21:07;6.30;99.90
1129;DHT22;553;51.038;7.216;2024-02-23T02:23:34;6.40;99.90
1129;DHT22;553;51.038;7.216;2024-02-23T02:26:01;6.40;99.90
1129;DHT22;553;51.038;7.216;2024-02-23T02:28:28;6.40;99.90
1129;DHT22;553;51.038;7.216;2024-02-23T02:30:55;6.30;99.90
1129;DHT22;553;51.038;7.216;2024-02-23T02:33:22;6.30;99.90
1129;DHT22;553;51.038;7.216;2024-02-23T02:35:49;6.30;99.90
1129;DHT22;553;51.038;7.216;2024-02-23T02:38:16;6.30;99.90
1129;DHT22;553;51.038;7.216;2024-02-23T02:40:43;6.30;99.90
1129;DHT22;553;51.038;7.216;2024-02-23T02:43:10;6.30;99.90
1129;DHT22;553;51.038;7.216;2024-02-23T02:45:37;6.30;99.90
1129;DHT22;553;51.038;7.216;2024-02-23T02:48:04;6.40;99.90
1129;DHT22;553;51.038;7.216;2024-02-23T02:50:31;6.40;99.90
1129;DHT22;553;51.038;7.216;2024-02-23T02:52:58;6.40;99.90
1129;DHT22;553;51.038;7.216;2024-02-23T02:55:25;6.40;99.90
1129;DHT22;553;51.038;7.216;2024-02-23T02:57:52;6.40;99.90
1129;DHT22;553;51.038;7.216;2024-02-23T03:00:18;6.30;99.90
1129;DHT22;553;51.038;7.216;2024-02-23T03:02:45;6.30;99.90
1129;DHT22;553;51.038;7.216;2024-02-23T03:05:12;6.40;99.90
1129;DHT22;553;51.038;7.216;2024-02-23T03:07:39;6.40;99.90
1129;DHT22;553;51.038;7.216;2024-02-23T03:10:06;6.40;99.90
1129;DHT22;553;51.038;7.216;2024-02-23T03:12:33;6.30;99.90
1129;DHT22;553;51.038;7.216;2024-02-23T03:15:00;6.30;99.90
1129;DHT22;553;51.038;7.216;2024-02-23T03:17:29;6.30;99.90
1129;DHT22;553;51.038;7.216;2024-02-23T03:19:56;6.40;99.90
1129;DHT22;553;51.038;7.216;2024-02-23T03:22:24;6.20;99.90
1129;DHT22;553;51.038;7.216;2024-02-23T03:24:51;6.30;99.90
1129;DHT22;553;51.038;7.216;2024-02-23T03:27:17;6.20;99.90
1129;DHT22;553;51.038;7.216;2024-02-23T03:29:45;6.20;99.90
1129;DHT22;553;51.038;7.216;2024-02-23T03:32:11;6.00;99.90
1129;DHT22;553;51.038;7.216;2024-02-23T03:34:38;6.00;99.90
1129;DHT22;553;51.038;7.216;2024-02-23T03:37:05;6.00;99.90
1129;DHT22;553;51.038;7.216;2024-02-23T03:39:32;6.10;99.90
1129;DHT22;553;51.038;7.216;2024-02-23T03:41:59;6.00;99.90
1129;DHT22;553;51.038;7.216;2024-02-23T03:44:26;6.10;99.90
1129;DHT22;553;51.038;7.216;2024-02-23T03:46:52;6.10;99.90
1129;DHT22;553;51.038;7.216;2024-02-23T03:49:19;6.00;99.90
1129;DHT22;553;51.038;7.216;2024-02-23T03:51:47;6.10;99.90
1129;DHT22;553;51.038;7.216;2024-02-23T03:54:14;6.00;99.90
1129;DHT22;553;51.038;7.216;2024-02-23T03:56:41;6.00;99.90
1129;DHT22;553;51.038;7.216;2024-02-23T03:59:09;6.00;99.90
1129;DHT22;553;51.038;7.216;2024-02-23T04:01:37;6.00;99.90
1129;DHT22;553;51.038;7.216;2024-02-23T04:04:05;5.90;99.90
1129;DHT22;553;51.038;7.216;2024-02-23T04:06:33;5.80;99.90
1129;DHT22;553;51.038;7.216;2024-02-23T04:09:00;5.90;99.90
1129;DHT22;553;51.038;7.216;2024-02-23T04:11:26;5.90;99.90
1129;DHT22;553;51.038;7.216;2024-02-23T04:13:53;5.80;99.90
1129;DHT22;553;51.038;7.216;2024-02-23T04:16:23;5.80;99.90
1129;DHT22;553;51.038;7.216;2024-02-23T04:18:51;5.80;99.90
1129;DHT22;553;51.038;7.216;2024-02-23T04:21:18;5.70;99.90
1129;DHT22;553;51.038;7.216;2024-02-23T04:23:45;5.80;99.90
1129;DHT22;553;51.038;7.216;2024-02-23T04:26:12;5.70;99.90
1129;DHT22;553;51.038;7.216;2024-02-23T04:28:40;5.70;99.90
1129;DHT22;553;51.038;7.216;2024-02-23T04:31:08;5.70;99.90
1129;DHT22;553;51.038;7.216;2024-02-23T04:33:36;5.60;99.90
1129;DHT22;553;51.038;7.216;2024-02-23T04:36:04;5.70;99.90
1129;DHT22;553;51.038;7.216;2024-02-23T04:38:31;5.80;99.90
1129;DHT22;553;51.038;7.216;2024-02-23T04:40:58;5.80;99.90
1129;DHT22;553;51.038;7.216;2024-02-23T04:43:25;5.90;99.90
1129;DHT22;553;51.038;7.216;2024-02-23T04:45:52;5.80;99.90
1129;DHT22;553;51.038;7.216;2024-02-23T04:48:19;5.70;99.90
1129;DHT22;553;51.038;7.216;2024-02-23T04:50:46;5.70;99.90
1129;DHT22;553;51.038;7.216;2024-02-23T04:53:13;5.80;99.90
1129;DHT22;553;51.038;7.216;2024-02-23T04:55:39;5.80;99.90
1129;DHT22;553;51.038;7.216;2024-02-23T04:58:07;5.90;99.90
1129;DHT22;553;51.038;7.216;2024-02-23T05:00:34;5.90;99.90
1129;DHT22;553;51.038;7.216;2024-02-23T05:03:01;6.00;99.90
1129;DHT22;553;51.038;7.216;2024-02-23T05:05:30;6.00;99.90
1129;DHT22;553;51.038;7.216;2024-02-23T05:07:58;6.00;99.90
1129;DHT22;553;51.038;7.216;2024-02-23T05:10:26;6.00;99.90
1129;DHT22;553;51.038;7.216;2024-02-23T05:12:53;6.00;99.90
1129;DHT22;553;51.038;7.216;2024-02-23T05:15:19;5.80;99.90
1129;DHT22;553;51.038;7.216;2024-02-23T05:17:46;5.80;99.90
1129;DHT22;553;51.038;7.216;2024-02-23T05:20:14;5.80;99.90
1129;DHT22;553;51.038;7.216;2024-02-23T05:22:41;5.80;99.90
1129;DHT22;553;51.038;7.216;2024-02-23T05:25:08;5.70;99.90
1129;DHT22;553;51.038;7.216;2024-02-23T05:27:35;5.80;99.90
1129;DHT22;553;51.038;7.216;2024-02-23T05:30:02;5.80;99.90
1129;DHT22;553;51.038;7.216;2024-02-23T05:32:29;5.80;99.90
1129;DHT22;553;51.038;7.216;2024-02-23T05:34:56;5.80;99.90
1129;DHT22;553;51.038;7.216;2024-02-23T05:37:24;5.80;99.90
1129;DHT22;553;51.038;7.216;2024-02-23T05:39:51;5.90;99.90
1129;DHT22;553;51.038;7.216;2024-02-23T05:42:18;5.90;99.90
1129;DHT22;553;51.038;7.216;2024-02-23T05:44:45;5.90;99.90
1129;DHT22;553;51.038;7.216;2024-02-23T05:47:12;5.90;99.90
1129;DHT22;553;51.038;7.216;2024-02-23T05:49:40;5.80;99.90
1129;DHT22;553;51.038;7.216;2024-02-23T05:52:07;5.80;99.90
1129;DHT22;553;51.038;7.216;2024-02-23T05:54:35;5.70;99.90
1129;DHT22;553;51.038;7.216;2024-02-23T05:57:01;5.60;99.90
1129;DHT22;553;51.038;7.216;2024-02-23T05:59:29;5.70;99.90
1129;DHT22;553;51.038;7.216;2024-02-23T06:01:56;5.60;99.90
1129;DHT22;553;51.038;7.216;2024-02-23T06:04:26;5.50;99.90
1129;DHT22;553;51.038;7.216;2024-02-23T06:06:53;5.50;99.90
1129;DHT22;553;51.038;7.216;2024-02-23T06:09:21;5.60;99.90
1129;DHT22;553;51.038;7.216;2024-02-23T06:11:47;5.50;99.90
1129;DHT22;553;51.038;7.216;2024-02-23T06:14:14;5.30;99.90
1129;DHT22;553;51.038;7.216;2024-02-23T06:16:41;5.20;99.90
1129;DHT22;553;51.038;7.216;2024-02-23T06:19:08;5.10;99.90
1129;DHT22;553;51.038;7.216;2024-02-23T06:21:35;5.10;99.90
1129;DHT22;553;51.038;7.216;2024-02-23T06:24:03;5.00;99.90
1129;DHT22;553;51.038;7.216;2024-02-23T06:26:31;4.90;99.90
1129;DHT22;553;51.038;7.216;2024-02-23T06:28:58;4.80;99.90
1129;DHT22;553;51.038;7.216;2024-02-23T06:31:25;4.70;99.90
1129;DHT22;553;51.038;7.216;2024-02-23T06:33:52;4.80;99.90
1129;DHT22;553;51.038;7.216;2024-02-23T06:36:19;5.00;99.90
1129;DHT22;553;51.038;7.216;2024-02-23T06:38:46;5.00;99.90
1129;DHT22;553;51.038;7.216;2024-02-23T06:41:12;5.10;99.90
1129;DHT22;553;51.038;7.216;2024-02-23T06:43:39;5.10;99.90
1129;DHT22;553;51.038;7.216;2024-02-23T06:46:07;5.00;99.90
1129;DHT22;553;51.038;7.216;2024-02-23T06:48:37;5.10;99.90
1129;DHT22;553;51.038;7.216;2024-02-23T06:51:05;5.10;99.90
1129;DHT22;553;51.038;7.216;2024-02-23T06:53:32;5.10;99.90
1129;DHT22;553;51.038;7.216;2024-02-23T06:55:59;5.10;99.90
1129;DHT22;553;51.038;7.216;2024-02-23T06:58:27;5.20;99.90
1129;DHT22;553;51.038;7.216;2024-02-23T07:00:54;5.20;99.90
1129;DHT22;553;51.038;7.216;2024-02-23T07:03:21;5.30;99.90
1129;DHT22;553;51.038;7.216;2024-02-23T07:05:48;5.40;99.90
1129;DHT22;553;51.038;7.216;2024-02-23T07:08:17;5.30;99.90
1129;DHT22;553;51.038;7.216;2024-02-23T07:10:44;5.30;99.90
1129;DHT22;553;51.038;7.216;2024-02-23T07:13:11;5.20;99.90
1129;DHT22;553;51.038;7.216;2024-02-23T07:15:38;5.20;99.90
1129;DHT22;553;51.038;7.216;2024-02-23T07:18:05;5.20;99.90
1129;DHT22;553;51.038;7.216;2024-02-23T07:20:32;5.00;99.90
1129;DHT22;553;51.038;7.216;2024-02-23T07:22:59;5.10;99.90
1129;DHT22;553;51.038;7.216;2024-02-23T07:25:26;5.10;99.90
1129;DHT22;553;51.038;7.216;2024-02-23T07:27:52;5.00;99.90
1129;DHT22;553;51.038;7.216;2024-02-23T07:30:19;5.00;99.90
1129;DHT22;553;51.038;7.216;2024-02-23T07:32:46;5.00;99.90
1129;DHT22;553;51.038;7.216;2024-02-23T07:35:19;5.10;99.90
1129;DHT22;553;51.038;7.216;2024-02-23T07:37:46;5.00;99.90
1129;DHT22;553;51.038;7.216;2024-02-23T07:40:13;5.00;99.90
1129;DHT22;553;51.038;7.216;2024-02-23T07:42:42;5.10;99.90
1129;DHT22;553;51.038;7.216;2024-02-23T07:45:09;5.10;99.90
1129;DHT22;553;51.038;7.216;2024-02-23T07:47:37;5.10;99.90
1129;DHT22;553;51.038;7.216;2024-02-23T07:50:04;5.10;99.90
1129;DHT22;553;51.038;7.216;2024-02-23T07:52:31;5.10;99.90
1129;DHT22;553;51.038;7.216;2024-02-23T07:54:59;5.10;99.90
1129;DHT22;553;51.038;7.216;2024-02-23T07:57:29;5.20;99.90
1129;DHT22;553;51.038;7.216;2024-02-23T07:59:56;5.20;99.90
1129;DHT22;553;51.038;7.216;2024-02-23T08:02:22;5.20;99.90
1129;DHT22;553;51.038;7.216;2024-02-23T08:04:49;5.30;99.90
1129;DHT22;553;51.038;7.216;2024-02-23T08:07:17;5.30;99.90
1129;DHT22;553;51.038;7.216;2024-02-23T08:09:44;5.30;99.90
1129;DHT22;553;51.038;7.216;2024-02-23T08:12:11;5.30;99.90
1129;DHT22;553;51.038;7.216;2024-02-23T08:14:40;5.30;99.90
1129;DHT22;553;51.038;7.216;2024-02-23T08:17:08;5.40;99.90
1129;DHT22;553;51.038;7.216;2024-02-23T08:19:34;5.40;99.90
1129;DHT22;553;51.038;7.216;2024-02-23T08:22:01;5.40;99.90
1129;DHT22;553;51.038;7.216;2024-02-23T08:24:28;5.50;99.90
1129;DHT22;553;51.038;7.216;2024-02-23T08:26:55;5.70;99.90
1129;DHT22;553;51.038;7.216;2024-02-23T08:29:21;5.70;99.90
1129;DHT22;553;51.038;7.216;2024-02-23T08:31:48;5.80;99.90
1129;DHT22;553;51.038;7.216;2024-02-23T08:34:16;5.90;99.90
1129;DHT22;553;51.038;7.216;2024-02-23T08:36:44;5.90;99.90
1129;DHT22;553;51.038;7.216;2024-02-23T08:39:11;5.90;99.90
1129;DHT22;553;51.038;7.216;2024-02-23T08:41:38;5.90;99.90
1129;DHT22;553;51.038;7.216;2024-02-23T08:44:05;5.90;99.90
1129;DHT22;553;51.038;7.216;2024-02-23T08:46:32;5.90;99.90
1129;DHT22;553;51.038;7.216;2024-02-23T08:48:59;5.90;99.90
1129;DHT22;553;51.038;7.216;2024-02-23T08:51:25;6.00;99.90
1129;DHT22;553;51.038;7.216;2024-02-23T08:53:52;6.00;99.90
1129;DHT22;553;51.038;7.216;2024-02-23T08:56:19;6.10;99.90
1129;DHT22;553;51.038;7.216;2024-02-23T08:58:46;6.20;99.90
1129;DHT22;553;51.038;7.216;2024-02-23T09:01:13;6.20;99.90
1129;DHT22;553;51.038;7.216;2024-02-23T09:03:39;6.20;99.90
1129;DHT22;553;51.038;7.216;2024-02-23T09:06:06;6.30;99.90
1129;DHT22;553;51.038;7.216;2024-02-23T09:08:33;6.40;99.90
1129;DHT22;553;51.038;7.216;2024-02-23T09:11:01;6.40;99.90
1129;DHT22;553;51.038;7.216;2024-02-23T09:13:29;6.40;99.90
1129;DHT22;553;51.038;7.216;2024-02-23T09:15:57;6.40;99.90
1129;DHT22;553;51.038;7.216;2024-02-23T09:18:24;6.40;99.90
1129;DHT22;553;51.038;7.216;2024-02-23T09:20:50;6.40;99.90
1129;DHT22;553;51.038;7.216;2024-02-23T09:23:18;6.50;99.90
1129;DHT22;553;51.038;7.216;2024-02-23T09:25:45;6.40;99.90
1129;DHT22;553;51.038;7.216;2024-02-23T09:28:12;6.40;99.90
1129;DHT22;553;51.038;7.216;2024-02-23T09:30:39;6.40;99.90
1129;DHT22;553;51.038;7.216;2024-02-23T09:33:07;6.50;99.90
1129;DHT22;553;51.038;7.216;2024-02-23T09:35:35;6.60;99.90
1129;DHT22;553;51.038;7.216;2024-02-23T09:38:02;7.10;99.90
1129;DHT22;553;51.038;7.216;2024-02-23T09:40:29;7.00;99.90
1129;DHT22;553;51.038;7.216;2024-02-23T09:42:58;7.00;99.90
1129;DHT22;553;51.038;7.216;2024-02-23T09:45:26;7.00;99.90
1129;DHT22;553;51.038;7.216;2024-02-23T09:47:57;6.90;99.90
1129;DHT22;553;51.038;7.216;2024-02-23T09:50:25;6.90;99.90
1129;DHT22;553;51.038;7.216;2024-02-23T09:52:52;7.00;99.90
1129;DHT22;553;51.038;7.216;2024-02-23T09:55:21;7.00;99.90
1129;DHT22;553;51.038;7.216;2024-02-23T09:57:51;7.10;99.90
1129;DHT22;553;51.038;7.216;2024-02-23T10:00:23;7.00;99.90
1129;DHT22;553;51.038;7.216;2024-02-23T10:02:50;7.20;99.90
1129;DHT22;553;51.038;7.216;2024-02-23T10:05:18;7.40;99.90
1129;DHT22;553;51.038;7.216;2024-02-23T10:07:45;7.50;99.90
1129;DHT22;553;51.038;7.216;2024-02-23T10:10:13;7.60;99.90
1129;DHT22;553;51.038;7.216;2024-02-23T10:12:40;7.60;99.90
1129;DHT22;553;51.038;7.216;2024-02-23T10:15:07;7.40;99.90
1129;DHT22;553;51.038;7.216;2024-02-23T10:17:34;7.50;99.90
1129;DHT22;553;51.038;7.216;2024-02-23T10:20:03;7.50;99.90
1129;DHT22;553;51.038;7.216;2024-02-23T10:22:31;7.70;99.90
1129;DHT22;553;51.038;7.216;2024-02-23T10:24:59;7.70;99.90
1129;DHT22;553;51.038;7.216;2024-02-23T10:27:26;7.50;99.90
1129;DHT22;553;51.038;7.216;2024-02-23T10:29:54;7.40;99.90
1129;DHT22;553;51.038;7.216;2024-02-23T10:32:21;7.40;99.90
1129;DHT22;553;51.038;7.216;2024-02-23T10:34:50;7.50;99.90
1129;DHT22;553;51.038;7.216;2024-02-23T10:37:19;7.60;99.90
1129;DHT22;553;51.038;7.216;2024-02-23T10:39:47;7.70;99.90
1129;DHT22;553;51.038;7.216;2024-02-23T10:42:16;7.80;99.80
1129;DHT22;553;51.038;7.216;2024-02-23T10:44:46;7.90;99.50
1129;DHT22;553;51.038;7.216;2024-02-23T10:47:13;7.90;99.20
1129;DHT22;553;51.038;7.216;2024-02-23T10:49:41;8.40;97.90
1129;DHT22;553;51.038;7.216;2024-02-23T10:52:09;8.20;97.70
1129;DHT22;553;51.038;7.216;2024-02-23T10:54:39;8.20;98.10
1129;DHT22;553;51.038;7.216;2024-02-23T10:57:06;8.20;97.80
1129;DHT22;553;51.038;7.216;2024-02-23T10:59:33;8.30;98.40
1129;DHT22;553;51.038;7.216;2024-02-23T11:02:00;8.40;98.80
1129;DHT22;553;51.038;7.216;2024-02-23T11:04:29;8.50;98.10
1129;DHT22;553;51.038;7.216;2024-02-23T11:06:56;8.50;96.60
1129;DHT22;553;51.038;7.216;2024-02-23T11:09:26;8.50;97.20
1129;DHT22;553;51.038;7.216;2024-02-23T11:11:54;8.50;96.70
1129;DHT22;553;51.038;7.216;2024-02-23T11:14:36;8.60;96.70
1129;DHT22;553;51.038;7.216;2024-02-23T11:17:04;8.50;96.50
1129;DHT22;553;51.038;7.216;2024-02-23T11:19:39;8.60;96.60
1129;DHT22;553;51.038;7.216;2024-02-23T11:22:10;8.10;99.90
1129;DHT22;553;51.038;7.216;2024-02-23T11:24:49;8.00;99.90
1129;DHT22;553;51.038;7.216;2024-02-23T11:27:20;8.10;99.90
1129;DHT22;553;51.038;7.216;2024-02-23T11:29:47;8.10;99.90
1129;DHT22;553;51.038;7.216;2024-02-23T11:32:17;8.20;99.90
1129;DHT22;553;51.038;7.216;2024-02-23T11:34:57;8.30;99.60
1129;DHT22;553;51.038;7.216;2024-02-23T11:37:28;8.30;98.00
1129;DHT22;553;51.038;7.216;2024-02-23T11:39:55;8.30;97.50
1129;DHT22;553;51.038;7.216;2024-02-23T11:42:26;8.40;97.40
1129;DHT22;553;51.038;7.216;2024-02-23T11:44:54;8.40;97.90
1129;DHT22;553;51.038;7.216;2024-02-23T11:47:21;8.50;98.30
1129;DHT22;553;51.038;7.216;2024-02-23T11:49:47;8.30;98.80
1129;DHT22;553;51.038;7.216;2024-02-23T11:52:14;8.10;99.90
1129;DHT22;553;51.038;7.216;2024-02-23T11:54:42;8.00;99.90
1129;DHT22;553;51.038;7.216;2024-02-23T11:57:09;8.10;99.90
1129;DHT22;553;51.038;7.216;2024-02-23T11:59:35;8.20;99.90
1129;DHT22;553;51.038;7.216;2024-02-23T12:02:02;8.20;99.90
1129;DHT22;553;51.038;7.216;2024-02-23T12:04:32;8.20;99.90
1129;DHT22;553;51.038;7.216;2024-02-23T12:06:59;8.20;99.90
1129;DHT22;553;51.038;7.216;2024-02-23T12:09:27;8.20;99.90
1129;DHT22;553;51.038;7.216;2024-02-23T12:11:54;8.20;99.90
1129;DHT22;553;51.038;7.216;2024-02-23T12:14:21;8.20;99.90
1129;DHT22;553;51.038;7.216;2024-02-23T12:16:48;8.20;99.90
1129;DHT22;553;51.038;7.216;2024-02-23T12:19:15;8.20;99.90
1129;DHT22;553;51.038;7.216;2024-02-23T12:21:45;8.30;99.90
1129;DHT22;553;51.038;7.216;2024-02-23T12:24:12;8.20;99.20
1129;DHT22;553;51.038;7.216;2024-02-23T12:26:39;8.20;99.60
1129;DHT22;553;51.038;7.216;2024-02-23T12:29:06;8.30;99.90
1129;DHT22;553;51.038;7.216;2024-02-23T12:31:33;8.20;99.90
1129;DHT22;553;51.038;7.216;2024-02-23T12:34:01;8.10;99.90
1129;DHT22;553;51.038;7.216;2024-02-23T12:36:28;8.00;99.90
1129;DHT22;553;51.038;7.216;2024-02-23T12:38:55;8.10;99.90
1129;DHT22;553;51.038;7.216;2024-02-23T12:41:22;8.00;99.90
1129;DHT22;553;51.038;7.216;2024-02-23T12:43:49;8.00;99.90
1129;DHT22;553;51.038;7.216;2024-02-23T12:46:16;8.00;99.90
1129;DHT22;553;51.038;7.216;2024-02-23T12:48:42;8.00;99.90
1129;DHT22;553;51.038;7.216;2024-02-23T12:51:10;8.20;99.90
1129;DHT22;553;51.038;7.216;2024-02-23T12:53:40;8.20;99.70
1129;DHT22;553;51.038;7.216;2024-02-23T12:56:09;8.40;99.50
1129;DHT22;553;51.038;7.216;2024-02-23T12:58:39;8.50;98.90
1129;DHT22;553;51.038;7.216;2024-02-23T13:01:07;8.60;99.00
1129;DHT22;553;51.038;7.216;2024-02-23T13:03:37;8.60;98.50
1129;DHT22;553;51.038;7.216;2024-02-23T13:06:04;8.40;98.60
1129;DHT22;553;51.038;7.216;2024-02-23T13:08:32;8.50;98.50
1129;DHT22;553;51.038;7.216;2024-02-23T13:11:00;8.70;99.10
1129;DHT22;553;51.038;7.216;2024-02-23T13:13:27;8.80;98.10
1129;DHT22;553;51.038;7.216;2024-02-23T13:15:54;9.00;97.90
1129;DHT22;553;51.038;7.216;2024-02-23T13:18:21;8.90;97.00
1129;DHT22;553;51.038;7.216;2024-02-23T13:20:49;8.90;97.30
1129;DHT22;553;51.038;7.216;2024-02-23T13:23:16;9.00;97.30
1129;DHT22;553;51.038;7.216;2024-02-23T13:25:44;9.00;97.40
1129;DHT22;553;51.038;7.216;2024-02-23T13:28:12;9.00;97.20
1129;DHT22;553;51.038;7.216;2024-02-23T13:30:38;8.80;95.90
1129;DHT22;553;51.038;7.216;2024-02-23T13:33:06;8.70;98.10
1129;DHT22;553;51.038;7.216;2024-02-23T13:35:34;8.60;98.20
1129;DHT22;553;51.038;7.216;2024-02-23T13:38:01;8.40;99.00
1129;DHT22;553;51.038;7.216;2024-02-23T13:40:31;8.40;99.40
1129;DHT22;553;51.038;7.216;2024-02-23T13:42:58;8.30;99.90
1129;DHT22;553;51.038;7.216;2024-02-23T13:45:26;8.30;99.90
1129;DHT22;553;51.038;7.216;2024-02-23T13:48:00;8.30;99.90
1129;DHT22;553;51.038;7.216;2024-02-23T13:50:29;8.40;99.90
1129;DHT22;553;51.038;7.216;2024-02-23T13:52:56;8.50;99.30
1129;DHT22;553;51.038;7.216;2024-02-23T13:55:23;8.70;98.50
1129;DHT22;553;51.038;7.216;2024-02-23T13:57:50;8.90;98.10
1129;DHT22;553;51.038;7.216;2024-02-23T14:00:18;9.00;97.10
1129;DHT22;553;51.038;7.216;2024-02-23T14:02:46;9.00;97.10
1129;DHT22;553;51.038;7.216;2024-02-23T14:05:13;9.00;97.20
1129;DHT22;553;51.038;7.216;2024-02-23T14:07:42;8.90;98.20
1129;DHT22;553;51.038;7.216;2024-02-23T14:10:10;8.90;98.80
1129;DHT22;553;51.038;7.216;2024-02-23T14:12:37;8.90;99.90
1129;DHT22;553;51.038;7.216;2024-02-23T14:15:04;8.90;98.90
1129;DHT22;553;51.038;7.216;2024-02-23T14:17:32;9.00;98.70
1129;DHT22;553;51.038;7.216;2024-02-23T14:20:02;8.80;98.00
1129;DHT22;553;51.038;7.216;2024-02-23T14:22:30;8.90;98.50
1129;DHT22;553;51.038;7.216;2024-02-23T14:24:58;9.00;98.80
1129;DHT22;553;51.038;7.216;2024-02-23T14:27:25;9.00;99.10
1129;DHT22;553;51.038;7.216;2024-02-23T14:29:56;8.90;99.70
1129;DHT22;553;51.038;7.216;2024-02-23T14:32:23;9.00;99.00
1129;DHT22;553;51.038;7.216;2024-02-23T14:34:50;9.10;99.60
1129;DHT22;553;51.038;7.216;2024-02-23T14:37:17;9.00;99.50
1129;DHT22;553;51.038;7.216;2024-02-23T14:39:43;9.00;99.10
1129;DHT22;553;51.038;7.216;2024-02-23T14:42:13;9.00;97.90
1129;DHT22;553;51.038;7.216;2024-02-23T14:44:40;8.90;97.20
1129;DHT22;553;51.038;7.216;2024-02-23T14:47:07;8.80;97.30
1129;DHT22;553;51.038;7.216;2024-02-23T14:49:34;9.00;98.10
1129;DHT22;553;51.038;7.216;2024-02-23T14:52:01;9.10;97.10
1129;DHT22;553;51.038;7.216;2024-02-23T14:54:28;9.20;96.70
1129;DHT22;553;51.038;7.216;2024-02-23T14:56:56;9.30;96.30
1129;DHT22;553;51.038;7.216;2024-02-23T14:59:22;9.20;95.40
1129;DHT22;553;51.038;7.216;2024-02-23T15:01:49;9.20;96.00
1129;DHT22;553;51.038;7.216;2024-02-23T15:04:16;9.30;96.50
1129;DHT22;553;51.038;7.216;2024-02-23T15:06:45;9.30;95.60
1129;DHT22;553;51.038;7.216;2024-02-23T15:09:13;9.30;94.90
1129;DHT22;553;51.038;7.216;2024-02-23T15:11:39;9.30;94.10
1129;DHT22;553;51.038;7.216;2024-02-23T15:14:07;9.30;94.40
1129;DHT22;553;51.038;7.216;2024-02-23T15:16:33;9.10;94.00
1129;DHT22;553;51.038;7.216;2024-02-23T15:19:01;9.00;95.00
1129;DHT22;553;51.038;7.216;2024-02-23T15:21:29;9.10;94.90
1129;DHT22;553;51.038;7.216;2024-02-23T15:23:55;9.10;95.80
1129;DHT22;553;51.038;7.216;2024-02-23T15:26:23;9.20;94.60
1129;DHT22;553;51.038;7.216;2024-02-23T15:28:51;9.20;94.90
1129;DHT22;553;51.038;7.216;2024-02-23T15:31:17;9.10;95.30
1129;DHT22;553;51.038;7.216;2024-02-23T15:33:44;9.00;96.30
1129;DHT22;553;51.038;7.216;2024-02-23T15:36:12;9.00;96.60
1129;DHT22;553;51.038;7.216;2024-02-23T15:38:42;9.00;96.80
1129;DHT22;553;51.038;7.216;2024-02-23T15:41:09;9.10;96.90
1129;DHT22;553;51.038;7.216;2024-02-23T15:43:37;9.10;95.10
1129;DHT22;553;51.038;7.216;2024-02-23T15:46:04;9.10;95.20
1129;DHT22;553;51.038;7.216;2024-02-23T15:48:31;9.20;95.70
1129;DHT22;553;51.038;7.216;2024-02-23T15:50:58;9.20;95.80
1129;DHT22;553;51.038;7.216;2024-02-23T15:53:45;9.20;95.90
1129;DHT22;553;51.038;7.216;2024-02-23T15:56:12;9.20;96.20
1129;DHT22;553;51.038;7.216;2024-02-23T15:58:39;9.20;95.10
1129;DHT22;553;51.038;7.216;2024-02-23T16:01:06;9.20;95.60
1129;DHT22;553;51.038;7.216;2024-02-23T16:03:33;9.20;95.30
1129;DHT22;553;51.038;7.216;2024-02-23T16:06:00;9.10;95.60
1129;DHT22;553;51.038;7.216;2024-02-23T16:08:44;9.10;96.20
1129;DHT22;553;51.038;7.216;2024-02-23T16:11:12;9.00;96.00
1129;DHT22;553;51.038;7.216;2024-02-23T16:13:40;8.90;96.40
1129;DHT22;553;51.038;7.216;2024-02-23T16:16:08;8.80;97.50
1129;DHT22;553;51.038;7.216;2024-02-23T16:18:37;8.80;98.20
1129;DHT22;553;51.038;7.216;2024-02-23T16:21:04;8.70;98.00
1129;DHT22;553;51.038;7.216;2024-02-23T16:23:31;8.60;98.80
1129;DHT22;553;51.038;7.216;2024-02-23T16:25:57;8.60;98.60
1129;DHT22;553;51.038;7.216;2024-02-23T16:28:24;8.60;98.80
1129;DHT22;553;51.038;7.216;2024-02-23T16:30:51;8.60;99.40
1129;DHT22;553;51.038;7.216;2024-02-23T16:33:18;8.70;98.60
1129;DHT22;553;51.038;7.216;2024-02-23T16:35:45;8.70;99.50